createdAt,value
2019-02-21T00:01:33.424Z,60496.36
2019-02-21T00:04:19.419Z,60493.36
2019-02-21T00:06:45.672Z,60481.31
2019-02-21T00:09:11.913Z,60478.13
2019-02-21T00:11:38.169Z,60482.95
2019-02-21T00:14:04.528Z,60456.58
2019-02-21T00:16:30.795Z,60452.47
2019-02-21T00:18:57.073Z,60455.33
2019-02-21T00:21:23.314Z,60448.40
2019-02-21T00:23:49.556Z,60447.15
2019-02-21T00:26:15.818Z,60453.03
2019-02-21T00:28:42.056Z,60452.83
2019-02-21T00:31:08.285Z,60456.39
2019-02-21T00:33:34.542Z,60454.58
2019-02-21T00:36:00.793Z,60460.80
2019-02-21T00:38:27.038Z,60456.75
2019-02-21T00:40:53.276Z,60444.00
2019-02-21T00:43:19.505Z,60439.24
2019-02-21T00:45:45.749Z,60434.08
2019-02-21T00:48:11.983Z,60431.63
2019-02-21T00:50:38.233Z,60425.48
2019-02-21T00:53:04.458Z,60406.01
2019-02-21T00:55:30.724Z,60400.31
2019-02-21T00:58:38.263Z,60398.05
2019-02-21T01:01:04.502Z,60394.01
2019-02-21T01:03:30.735Z,60391.96
2019-02-21T01:05:56.995Z,60378.24
2019-02-21T01:08:23.223Z,60373.10
2019-02-21T01:10:49.466Z,60374.91
2019-02-21T01:13:15.692Z,60367.48
2019-02-21T01:15:41.938Z,60359.68
2019-02-21T01:18:08.170Z,60365.43
2019-02-21T01:20:34.408Z,60352.11
2019-02-21T01:23:00.640Z,60364.49
2019-02-21T01:25:26.876Z,60366.27
2019-02-21T01:27:53.096Z,60366.09
2019-02-21T01:30:19.335Z,60361.81
2019-02-21T01:32:45.559Z,60359.53
2019-02-21T01:35:11.816Z,60357.24
2019-02-21T01:37:38.140Z,60357.83
2019-02-21T01:40:45.687Z,60346.29
2019-02-21T01:43:11.919Z,60344.71
2019-02-21T01:45:38.159Z,60343.46
2019-02-21T01:48:04.397Z,60340.11
2019-02-21T01:50:31.585Z,60339.58
2019-02-21T01:52:58.785Z,60343.64
2019-02-21T01:55:25.032Z,60338.84
2019-02-21T01:57:51.266Z,60328.62
2019-02-21T02:00:17.509Z,60320.15
2019-02-21T02:02:43.757Z,60319.82
2019-02-21T02:05:09.991Z,60317.16
2019-02-21T02:08:17.545Z,60324.58
2019-02-21T02:10:43.788Z,60320.36
2019-02-21T02:13:21.656Z,60296.14
2019-02-21T02:15:38.163Z,60297.42
2019-02-21T02:18:04.404Z,60297.04
2019-02-21T02:20:30.647Z,60301.16
2019-02-21T02:22:56.892Z,60287.69
2019-02-21T02:25:23.121Z,60274.46
2019-02-21T02:27:49.372Z,60260.36
2019-02-21T02:30:15.625Z,60241.80
2019-02-21T02:32:41.890Z,60236.14
2019-02-21T02:35:08.087Z,60238.83
2019-02-21T02:37:34.387Z,60223.14
2019-02-21T02:40:00.654Z,60238.17
2019-02-21T02:42:26.900Z,60227.36
2019-02-21T02:44:53.146Z,60228.63
2019-02-21T02:47:19.396Z,60140.47
2019-02-21T02:49:45.634Z,60230.20
2019-02-21T02:52:11.875Z,60229.31
2019-02-21T02:54:38.110Z,60231.30
2019-02-21T02:57:04.359Z,60216.60
2019-02-21T02:59:40.248Z,60222.85
2019-02-21T03:01:58.744Z,60220.00
2019-02-21T03:04:25.022Z,60215.38
2019-02-21T03:06:51.250Z,60207.43
2019-02-21T03:09:17.499Z,60217.87
2019-02-21T03:11:43.722Z,60221.90
2019-02-21T03:14:09.969Z,60223.83
2019-02-21T03:16:36.206Z,60221.90
2019-02-21T03:19:02.478Z,60210.58
2019-02-21T03:21:28.704Z,60217.87
2019-02-21T03:23:54.978Z,60219.62
2019-02-21T03:26:21.173Z,60219.44
2019-02-21T03:28:47.435Z,60210.25
2019-02-21T03:31:13.659Z,60228.78
2019-02-21T03:33:39.902Z,60239.34
2019-02-21T03:36:06.114Z,60230.20
2019-02-21T03:38:34.984Z,60210.96
2019-02-21T03:41:12.705Z,60200.74
2019-02-21T03:43:38.956Z,60203.23
2019-02-21T03:46:05.195Z,60196.68
2019-02-21T03:48:31.447Z,60194.93
2019-02-21T03:50:57.672Z,60200.38
2019-02-21T03:53:23.926Z,60192.95
2019-02-21T03:59:03.817Z,60171.31
2019-02-21T04:01:30.050Z,60160.05
2019-02-21T04:04:37.603Z,60159.82
2019-02-21T04:07:03.938Z,60161.07
2019-02-21T04:09:30.187Z,60147.52
2019-02-21T04:11:56.423Z,60140.67
2019-02-21T04:19:30.899Z,60165.15
2019-02-21T04:21:57.127Z,60154.06
2019-02-21T04:24:23.365Z,60134.51
2019-02-21T04:26:49.612Z,60127.26
2019-02-21T04:29:15.842Z,60125.00
2019-02-21T04:31:42.071Z,60108.94
2019-02-21T04:34:08.333Z,60106.68
2019-02-21T04:36:34.558Z,60097.66
2019-02-21T04:39:00.801Z,60102.78
2019-02-21T04:41:27.033Z,60105.59
2019-02-21T04:43:53.299Z,60106.66
2019-02-21T04:46:19.535Z,60102.07
2019-02-21T04:48:45.758Z,60115.63
2019-02-21T04:51:11.997Z,60121.28
2019-02-21T04:53:38.225Z,60123.94
2019-02-21T04:56:04.468Z,60138.42
2019-02-21T04:58:30.713Z,60127.26
2019-02-21T05:00:56.959Z,60121.46
2019-02-21T05:03:23.190Z,60120.75
2019-02-21T05:05:49.422Z,60113.88
2019-02-21T05:08:15.657Z,60116.52
2019-02-21T05:10:42.016Z,60105.41
2019-02-21T05:13:08.243Z,60102.80
2019-02-21T05:15:34.464Z,60098.73
2019-02-21T05:18:00.711Z,60095.58
2019-02-21T05:20:26.939Z,60091.71
2019-02-21T05:22:53.178Z,60089.07
2019-02-21T05:25:19.398Z,60076.89
2019-02-21T05:33:13.247Z,60076.22
2019-02-21T05:35:59.242Z,60069.89
2019-02-21T05:38:45.223Z,60066.90
2019-02-21T05:44:08.839Z,60069.00
2019-02-21T05:46:54.845Z,60065.48
2019-02-21T05:55:06.041Z,60066.77
2019-02-21T05:57:52.023Z,60054.21
2019-02-21T06:00:38.005Z,60051.20
2019-02-21T06:03:24.007Z,60058.26
2019-02-21T06:06:10.102Z,60057.93
2019-02-21T06:08:56.104Z,60059.02
2019-02-21T06:19:41.239Z,60043.82
2019-02-21T06:22:27.240Z,60048.77
2019-02-21T06:25:13.322Z,60057.58
2019-02-21T06:30:46.934Z,60054.21
2019-02-21T06:33:13.158Z,60054.92
2019-02-21T06:35:39.405Z,60044.03
2019-02-21T06:38:05.634Z,60035.04
2019-02-21T06:40:31.880Z,60034.86
2019-02-21T06:42:58.123Z,60040.33
2019-02-21T06:45:24.397Z,60039.09
2019-02-21T06:47:50.625Z,60035.19
2019-02-21T06:50:26.381Z,60039.09
2019-02-21T06:52:45.006Z,60046.13
2019-02-21T06:55:11.262Z,60041.88
2019-02-21T06:57:37.539Z,60045.78
2019-02-21T07:00:46.305Z,60048.98
2019-02-21T07:03:16.096Z,60045.45
2019-02-21T07:05:41.389Z,60044.20
2019-02-21T07:08:08.827Z,60043.85
2019-02-21T07:10:35.766Z,60038.73
2019-02-21T07:13:02.011Z,60042.08
2019-02-21T07:15:28.238Z,60044.36
2019-02-21T07:17:54.471Z,60054.05
2019-02-21T07:20:20.696Z,60062.84
2019-02-21T07:22:46.932Z,60069.00
2019-02-21T07:25:32.912Z,60073.54
2019-02-21T07:27:59.160Z,60081.29
2019-02-21T07:30:25.397Z,60087.27
2019-02-21T07:32:51.636Z,60098.21
2019-02-21T07:35:17.873Z,60108.46
2019-02-21T07:37:44.137Z,60106.66
2019-02-21T07:40:30.123Z,60116.54
2019-02-21T07:42:58.629Z,60118.62
2019-02-21T07:45:24.492Z,60124.45
2019-02-21T07:47:50.742Z,60128.83
2019-02-21T07:50:16.970Z,60135.70
2019-02-21T07:52:43.213Z,60145.36
2019-02-21T07:55:10.581Z,60160.89
2019-02-21T07:57:37.593Z,60175.35
2019-02-21T08:03:29.558Z,60201.27
2019-02-21T08:05:46.028Z,60226.37
2019-02-21T08:08:12.275Z,60234.44
2019-02-21T08:10:38.496Z,60248.89
2019-02-21T08:13:04.738Z,60263.54
2019-02-21T08:15:30.972Z,60285.76
2019-02-21T08:17:57.222Z,60298.25
2019-02-21T08:20:33.557Z,60316.11
2019-02-21T08:22:51.603Z,60334.11
2019-02-21T08:25:19.252Z,60346.44
2019-02-21T08:27:45.960Z,60364.84
2019-02-21T08:30:53.508Z,60377.91
2019-02-21T08:33:39.504Z,60315.23
2019-02-21T08:36:05.735Z,60419.24
2019-02-21T08:38:31.988Z,60433.36
2019-02-21T08:40:58.212Z,60449.29
2019-02-21T08:43:24.476Z,60473.19
2019-02-21T08:45:50.697Z,60493.00
2019-02-21T08:48:16.942Z,60509.98
2019-02-21T08:50:43.186Z,60527.48
2019-02-21T08:53:09.455Z,60543.07
2019-02-21T08:55:35.647Z,60555.78
2019-02-21T08:58:01.880Z,60577.07
2019-02-21T09:00:28.225Z,60604.02
2019-02-21T09:02:54.550Z,60624.20
2019-02-21T09:06:02.093Z,60637.63
2019-02-21T09:08:33.717Z,60645.96
2019-02-21T09:10:56.478Z,60688.31
2019-02-21T09:13:23.863Z,60697.98
2019-02-21T09:15:50.852Z,60707.67
2019-02-21T09:18:17.071Z,60728.59
2019-02-21T09:20:43.324Z,60745.79
2019-02-21T09:23:09.551Z,60769.25
2019-02-21T09:25:35.792Z,60785.57
2019-02-21T09:28:02.021Z,60789.65
2019-02-21T09:30:28.267Z,60792.64
2019-02-21T09:32:54.492Z,60807.95
2019-02-21T09:35:20.738Z,60825.22
2019-02-21T09:37:46.962Z,60832.24
2019-02-21T09:40:54.496Z,60849.11
2019-02-21T09:43:20.732Z,60874.39
2019-02-21T09:45:46.987Z,60896.71
2019-02-21T09:48:13.227Z,60922.70
2019-02-21T09:50:39.468Z,60944.77
2019-02-21T09:53:05.697Z,60963.08
2019-02-21T09:55:31.937Z,60992.80
2019-02-21T09:57:58.174Z,61025.79
2019-02-21T10:00:24.411Z,61037.12
2019-02-21T10:02:54.301Z,61056.55
2019-02-21T10:05:18.781Z,61084.86
2019-02-21T10:07:45.118Z,61108.33
2019-02-21T10:10:52.661Z,61131.36
2019-02-21T10:13:18.889Z,61142.73
2019-02-21T10:15:46.997Z,61166.86
2019-02-21T10:18:13.288Z,61182.33
2019-02-21T10:20:39.536Z,61215.61
2019-02-21T10:23:05.770Z,61234.08
2019-02-21T10:25:32.001Z,61260.21
2019-02-21T10:27:59.226Z,61267.29
2019-02-21T10:30:26.356Z,61282.48
2019-02-21T10:32:52.597Z,61299.23
2019-02-21T10:35:18.842Z,61313.60
2019-02-21T10:37:45.066Z,61318.71
2019-02-21T10:40:52.632Z,61338.98
2019-02-21T10:43:18.859Z,61344.24
2019-02-21T10:45:47.716Z,61381.97
2019-02-21T10:48:13.258Z,61395.05
2019-02-21T10:50:39.477Z,61412.87
2019-02-21T10:53:05.711Z,61435.61
2019-02-21T10:55:31.940Z,61466.64
2019-02-21T10:57:58.275Z,61493.04
2019-02-21T11:03:38.271Z,61534.41
2019-02-21T11:06:04.507Z,61555.54
2019-02-21T11:08:30.767Z,61573.77
2019-02-21T11:10:57.004Z,61591.80
2019-02-21T11:13:23.244Z,61608.98
2019-02-21T11:15:49.474Z,61637.60
2019-02-21T11:18:15.716Z,61660.18
2019-02-21T11:20:41.940Z,61673.88
2019-02-21T11:23:08.191Z,61678.38
2019-02-21T11:25:34.420Z,61703.78
2019-02-21T11:28:00.670Z,61704.55
2019-02-21T11:30:26.904Z,61715.26
2019-02-21T11:32:53.158Z,61730.48
2019-02-21T11:35:19.377Z,61743.39
2019-02-21T11:37:47.083Z,61776.11
2019-02-21T11:43:27.293Z,61796.63
2019-02-21T11:45:57.203Z,61797.91
2019-02-21T11:48:21.668Z,61785.07
2019-02-21T11:50:47.896Z,61781.40
2019-02-21T11:53:14.135Z,61768.57
2019-02-21T11:55:40.372Z,61754.70
2019-02-21T11:58:06.619Z,61750.30
2019-02-21T12:00:33.052Z,61737.58
2019-02-21T12:02:59.291Z,61720.98
2019-02-21T12:05:31.323Z,61736.61
2019-02-21T12:07:53.672Z,61722.12
2019-02-21T12:10:19.915Z,61725.29
2019-02-21T12:12:46.148Z,61711.63
2019-02-21T12:15:53.692Z,61731.23
2019-02-21T12:18:20.040Z,61738.40
2019-02-21T12:20:46.274Z,61736.06
2019-02-21T12:23:12.522Z,61724.40
2019-02-21T12:25:38.753Z,61721.77
2019-02-21T12:28:04.982Z,61724.21
2019-02-21T12:30:33.346Z,61736.39
2019-02-21T12:32:59.366Z,61749.63
2019-02-21T12:35:29.548Z,61733.27
2019-02-21T12:37:53.767Z,61729.09
2019-02-21T12:41:02.354Z,61711.68
2019-02-21T12:43:29.450Z,61726.38
2019-02-21T12:46:37.017Z,61718.73
2019-02-21T12:49:03.266Z,61698.37
2019-02-21T12:51:29.504Z,61664.12
2019-02-21T12:53:55.747Z,61656.72
2019-02-21T12:56:21.988Z,61652.85
2019-02-21T12:58:48.253Z,61648.88
2019-02-21T13:01:14.507Z,61621.64
2019-02-21T13:03:40.755Z,61627.37
2019-02-21T13:06:07.003Z,61616.86
2019-02-21T13:08:33.243Z,61610.41
2019-02-21T13:10:59.507Z,61611.79
2019-02-21T13:13:25.743Z,61594.36
2019-02-21T13:15:52.002Z,61591.56
2019-02-21T13:18:18.237Z,61592.15
2019-02-21T13:20:44.484Z,61577.58
2019-02-21T13:23:10.726Z,61567.86
2019-02-21T13:25:36.977Z,61567.75
2019-02-21T13:28:03.212Z,61560.62
2019-02-21T13:30:29.477Z,61563.43
2019-02-21T13:32:55.702Z,61558.05
2019-02-21T13:35:21.953Z,61540.40
2019-02-21T13:37:48.190Z,61534.95
2019-02-21T13:40:55.742Z,61533.33
2019-02-21T13:43:21.980Z,61510.96
2019-02-21T13:45:48.231Z,61502.85
2019-02-21T13:48:14.469Z,61500.27
2019-02-21T13:50:40.702Z,61488.02
2019-02-21T13:53:06.946Z,61489.30
2019-02-21T13:55:33.193Z,61464.39
2019-02-21T13:57:59.428Z,61459.89
2019-02-21T14:00:25.661Z,61456.54
2019-02-21T14:02:51.915Z,61460.84
2019-02-21T14:05:18.140Z,61446.25
2019-02-21T14:07:44.383Z,61432.18
2019-02-21T14:13:11.952Z,61421.12
2019-02-21T14:15:39.547Z,61427.55
2019-02-21T14:18:05.810Z,61397.85
2019-02-21T14:20:32.045Z,61397.05
2019-02-21T14:22:58.284Z,61394.02
2019-02-21T14:25:24.511Z,61389.18
2019-02-21T14:27:50.751Z,61375.19
2019-02-21T14:33:07.117Z,61356.44
2019-02-21T14:35:33.557Z,61357.30
2019-02-21T14:37:59.881Z,61332.65
2019-02-21T14:40:26.204Z,61327.68
2019-02-21T14:42:52.487Z,61324.90
2019-02-21T14:45:38.493Z,61301.17
2019-02-21T14:48:04.824Z,61289.59
2019-02-21T14:50:31.062Z,61288.13
2019-02-21T14:52:57.315Z,61278.51
2019-02-21T14:55:23.564Z,61254.96
2019-02-21T14:57:49.817Z,61246.55
2019-02-21T15:00:36.564Z,61234.38
2019-02-21T15:03:02.812Z,61228.75
2019-02-21T15:05:29.219Z,61221.44
2019-02-21T15:07:55.529Z,61208.75
2019-02-21T15:10:21.801Z,61211.07
2019-02-21T15:12:48.034Z,61181.83
2019-02-21T15:18:27.965Z,61147.20
2019-02-21T15:20:54.203Z,61144.39
2019-02-21T15:23:20.467Z,61141.72
2019-02-21T15:25:46.698Z,61132.57
2019-02-21T15:28:12.946Z,61124.75
2019-02-21T15:30:39.181Z,61118.03
2019-02-21T15:33:05.419Z,61098.17
2019-02-21T15:35:31.663Z,61087.34
2019-02-21T15:38:00.435Z,61058.49
2019-02-21T15:40:26.113Z,61047.70
2019-02-21T15:42:52.936Z,61041.37
2019-02-21T15:45:40.243Z,61013.27
2019-02-21T15:48:06.569Z,61014.86
2019-02-21T15:50:32.903Z,60975.18
2019-02-21T15:52:59.131Z,60956.82
2019-02-21T15:55:25.369Z,60951.63
2019-02-21T15:58:02.699Z,60929.82
2019-02-21T16:00:39.506Z,60927.09
2019-02-21T16:03:05.743Z,60911.53
2019-02-21T16:05:31.990Z,60896.94
2019-02-21T16:07:58.222Z,60883.04
2019-02-21T16:11:05.921Z,60875.24
2019-02-21T16:13:32.955Z,60854.45
2019-02-21T16:16:00.286Z,60835.64
2019-02-21T16:18:26.526Z,60816.24
2019-02-21T16:20:53.098Z,60800.64
2019-02-21T16:23:20.911Z,60793.03
2019-02-21T16:25:47.151Z,60787.89
2019-02-21T16:28:13.375Z,60783.28
2019-02-21T16:30:39.639Z,60776.13
2019-02-21T16:33:05.899Z,60783.70
2019-02-21T16:35:32.290Z,60766.20
2019-02-21T16:37:58.508Z,60757.73
2019-02-21T16:40:24.756Z,60741.21
2019-02-21T16:42:50.989Z,60722.55
2019-02-21T16:45:43.494Z,60717.81
2019-02-21T16:48:05.139Z,60710.89
2019-02-21T16:50:31.368Z,60683.58
2019-02-21T16:52:57.607Z,60655.00
2019-02-21T16:55:23.851Z,60645.46
2019-02-21T16:57:50.088Z,60636.20
2019-02-21T17:00:47.793Z,60640.14
2019-02-21T17:03:04.243Z,60639.84
2019-02-21T17:05:30.469Z,60637.07
2019-02-21T17:07:56.698Z,60614.59
2019-02-21T17:10:22.952Z,60605.57
2019-02-21T17:12:49.186Z,60607.05
2019-02-21T17:15:56.733Z,60596.91
2019-02-21T17:18:22.974Z,60584.12
2019-02-21T17:20:49.216Z,60574.96
2019-02-21T17:23:22.513Z,60561.32
2019-02-21T17:25:43.587Z,60559.75
2019-02-21T17:28:09.831Z,60563.92
2019-02-21T17:30:36.110Z,60542.19
2019-02-21T17:33:02.338Z,60483.12
2019-02-21T17:35:28.685Z,60524.63
2019-02-21T17:37:54.905Z,60515.07
2019-02-21T17:40:40.898Z,60505.04
2019-02-21T17:43:07.149Z,60490.86
2019-02-21T17:45:33.382Z,60483.84
2019-02-21T17:47:59.620Z,60477.62
2019-02-21T17:50:25.855Z,60464.70
2019-02-21T17:52:52.105Z,60455.68
2019-02-21T17:55:18.321Z,60449.50
2019-02-21T17:57:44.552Z,60440.29
2019-02-21T18:00:52.087Z,60442.82
2019-02-21T18:03:18.373Z,60420.29
2019-02-21T18:05:44.606Z,60397.52
2019-02-21T18:08:10.836Z,60385.51
2019-02-21T18:10:37.073Z,60373.13
2019-02-21T18:13:03.350Z,60361.99
2019-02-21T18:15:29.615Z,60358.66
2019-02-21T18:17:55.852Z,60352.84
2019-02-21T18:20:22.092Z,60336.90
2019-02-21T18:22:48.328Z,60290.87
2019-02-21T18:28:28.506Z,60324.58
2019-02-21T18:30:54.740Z,60317.13
2019-02-21T18:33:20.988Z,60321.40
2019-02-21T18:35:47.207Z,60313.62
2019-02-21T18:38:13.457Z,60302.68
2019-02-21T18:40:39.998Z,60293.68
2019-02-21T18:43:06.307Z,60288.37
2019-02-21T18:45:32.551Z,60294.60
2019-02-21T18:47:58.802Z,60281.66
2019-02-21T18:50:25.047Z,60277.07
2019-02-21T18:52:51.284Z,60275.70
2019-02-21T18:55:17.529Z,60265.82
2019-02-21T18:57:43.763Z,60245.28
2019-02-21T19:00:29.756Z,60243.05
2019-02-21T19:02:56.010Z,60239.16
2019-02-21T19:05:22.264Z,60233.50
2019-02-21T19:08:00.498Z,60230.36
2019-02-21T19:13:30.845Z,60225.23
2019-02-21T19:15:57.082Z,60224.16
2019-02-21T19:18:24.273Z,60219.77
2019-02-21T19:20:51.477Z,60206.75
2019-02-21T19:23:17.763Z,60205.56
2019-02-21T19:25:43.994Z,60196.35
2019-02-21T19:28:10.221Z,60189.78
2019-02-21T19:31:15.957Z,60191.75
2019-02-21T19:33:42.215Z,60193.36
2019-02-21T19:39:15.804Z,60190.54
2019-02-21T19:41:42.031Z,60177.80
2019-02-21T19:44:09.265Z,60166.70
2019-02-21T19:46:36.430Z,60157.72
2019-02-21T19:49:02.665Z,60152.67
2019-02-21T19:51:28.896Z,60143.13
2019-02-21T19:53:55.166Z,60148.13
2019-02-21T19:56:21.379Z,60137.46
2019-02-21T19:58:47.630Z,60133.42
2019-02-21T20:01:13.964Z,60129.39
2019-02-21T20:03:40.190Z,60124.09
2019-02-21T20:06:47.736Z,60126.96
2019-02-21T20:11:48.140Z,60120.42
2019-02-21T20:14:14.370Z,60103.99
2019-02-21T20:16:40.612Z,60101.56
2019-02-21T20:19:06.874Z,60089.91
2019-02-21T20:21:33.120Z,60092.92
2019-02-21T20:23:59.348Z,60092.92
2019-02-21T20:26:25.587Z,60089.22
2019-02-21T20:28:51.834Z,60079.72
2019-02-21T20:31:18.100Z,60068.27
2019-02-21T20:33:44.322Z,60051.02
2019-02-21T20:36:10.663Z,60052.28
2019-02-21T20:38:36.904Z,60054.41
2019-02-21T20:41:03.132Z,60046.46
2019-02-21T20:43:29.360Z,60047.55
2019-02-21T20:45:55.608Z,60032.93
2019-02-21T20:48:21.834Z,60028.18
2019-02-21T20:50:56.488Z,60029.44
2019-02-21T20:53:16.227Z,60019.37
2019-02-21T20:55:43.920Z,60022.02
2019-02-21T20:58:11.678Z,60020.25
2019-02-21T21:00:38.751Z,60017.46
2019-02-21T21:03:04.977Z,60023.69
2019-02-21T21:05:31.216Z,60007.42
2019-02-21T21:07:57.460Z,59996.48
2019-02-21T21:10:23.667Z,59991.79
2019-02-21T21:12:49.919Z,59984.96
2019-02-21T21:15:16.153Z,59974.21
2019-02-21T21:17:42.395Z,59963.81
2019-02-21T21:23:22.777Z,59974.94
2019-02-21T21:25:49.019Z,59974.54
2019-02-21T21:28:15.353Z,59968.21
2019-02-21T21:30:41.580Z,59965.38
2019-02-21T21:33:07.831Z,59960.98
2019-02-21T21:35:34.067Z,59961.91
2019-02-21T21:38:00.305Z,59959.43
2019-02-21T21:40:26.536Z,59955.92
2019-02-21T21:42:52.770Z,59953.46
2019-02-21T21:45:19.010Z,59952.75
2019-02-21T21:47:45.239Z,59959.26
2019-02-21T21:53:25.029Z,59941.50
2019-02-21T21:55:51.253Z,59940.33
2019-02-21T21:58:17.491Z,59930.27
2019-02-21T22:00:43.736Z,59926.55
2019-02-21T22:03:09.979Z,59931.16
2019-02-21T22:05:36.208Z,59922.86
2019-02-21T22:08:02.447Z,59922.91
2019-02-21T22:10:28.672Z,59920.76
2019-02-21T22:12:54.935Z,59926.20
2019-02-21T22:18:34.582Z,59919.72
2019-02-21T22:21:00.813Z,59913.93
2019-02-21T22:23:27.064Z,59910.95
2019-02-21T22:25:53.298Z,59900.05
2019-02-21T22:28:19.543Z,59898.51
2019-02-21T22:30:45.760Z,59889.34
2019-02-21T22:33:12.001Z,59885.98
2019-02-21T22:35:38.228Z,59890.75
2019-02-21T22:38:11.240Z,59886.51
2019-02-21T22:40:37.474Z,59890.20
2019-02-21T22:43:03.737Z,59896.54
2019-02-21T22:45:29.963Z,59896.36
2019-02-21T22:47:56.208Z,59891.26
2019-02-21T22:50:22.431Z,59880.04
2019-02-21T22:52:48.674Z,59867.73
2019-02-21T22:55:14.904Z,59867.07
2019-02-21T22:57:41.127Z,59857.55
2019-02-21T23:00:48.672Z,59853.51
2019-02-21T23:03:17.481Z,59850.88
2019-02-21T23:06:22.574Z,59839.11
2019-02-21T23:09:28.450Z,59839.81
2019-02-21T23:11:54.667Z,59855.16
2019-02-21T23:14:20.920Z,59849.64
2019-02-21T23:16:47.148Z,59854.41
2019-02-21T23:19:13.388Z,59861.28
2019-02-21T23:21:39.608Z,59862.32
2019-02-21T23:24:05.856Z,59857.06
2019-02-21T23:26:32.075Z,59855.56
2019-02-21T23:28:58.308Z,59841.98
2019-02-21T23:31:24.552Z,59837.36
2019-02-21T23:34:10.571Z,59838.40
2019-02-21T23:36:36.809Z,59852.89
2019-02-21T23:41:57.436Z,59829.43
2019-02-21T23:44:23.658Z,59831.55
2019-02-21T23:46:49.906Z,59844.78
2019-02-21T23:49:16.139Z,59833.32
2019-02-21T23:51:42.384Z,59839.15
2019-02-21T23:54:08.612Z,59835.13
2019-02-21T23:56:34.861Z,59821.02
2019-02-21T23:59:01.085Z,59822.81
